Terminal Aerodrome Forecast
Issued by NWS Quad Cities IA IL

Home | Current Version | Previous Version | Text Only | Print | Product List | Glossary On
Versions: 1 2 3 4 5 6 7 8 9 10 11 12 13 14 15 16 17 18 19 20 21 22 23 24
696
FTUS43 KDVN 011647 AAE
TAFDBQ
TAF AMD
KDBQ 011647Z 0117/0212 05011KT 6SM -SHRA BR OVC008
      TEMPO 0117/0120 BKN010
     FM020100 02007KT 6SM BR OVC014
     FM020800 02007KT 6SM BR SCT030=

USA.gov is the U.S. government's official web portal to all federal, state and local government web resources and services.